createdAt,value
2024-05-09T00:00:59.935Z,12.84
2024-05-09T00:01:59.889Z,9.30
2024-05-09T00:02:59.958Z,10.91
2024-05-09T00:03:59.953Z,13.16
2024-05-09T00:05:00.030Z,10.91
2024-05-09T00:06:00.149Z,10.26
2024-05-09T00:06:59.947Z,10.26
2024-05-09T00:08:00.034Z,9.94
2024-05-09T00:08:59.988Z,13.16
2024-05-09T00:10:00.017Z,9.94
2024-05-09T00:11:00.113Z,10.91
2024-05-09T00:12:00.356Z,10.59
2024-05-09T00:13:00.047Z,12.20
2024-05-09T00:14:00.082Z,10.26
2024-05-09T00:15:00.092Z,9.94
2024-05-09T00:16:00.097Z,11.23
2024-05-09T00:17:00.224Z,10.26
2024-05-09T00:18:00.372Z,11.55
2024-05-09T00:19:00.369Z,9.94
2024-05-09T00:20:00.280Z,10.59
2024-05-09T00:21:00.374Z,13.16
2024-05-09T00:22:00.226Z,11.87
2024-05-09T00:23:00.261Z,11.55
2024-05-09T00:24:00.240Z,10.91
2024-05-09T00:25:00.244Z,10.26
2024-05-09T00:26:00.348Z,10.91
2024-05-09T00:27:00.255Z,11.55
2024-05-09T00:28:00.259Z,9.62
2024-05-09T00:29:00.332Z,14.78
2024-05-09T00:30:00.305Z,13.49
2024-05-09T00:31:00.322Z,8.97
2024-05-09T00:32:00.457Z,10.59
2024-05-09T00:34:00.687Z,10.91
2024-05-09T00:35:00.476Z,9.62
2024-05-09T00:36:00.422Z,10.59
2024-05-09T00:37:00.410Z,10.26
2024-05-09T00:38:00.722Z,10.91
2024-05-09T00:39:00.435Z,9.94
2024-05-09T00:40:00.453Z,15.42
2024-05-09T00:41:00.510Z,10.59
2024-05-09T00:42:00.508Z,10.91
2024-05-09T00:43:00.502Z,9.94
2024-05-09T00:44:00.529Z,10.26
2024-05-09T00:45:00.652Z,9.62
2024-05-09T00:46:00.553Z,10.59
2024-05-09T00:47:00.594Z,10.26
2024-05-09T00:48:00.965Z,9.62
2024-05-09T00:49:00.766Z,14.13
2024-05-09T00:50:00.687Z,10.59
2024-05-09T00:51:00.746Z,11.23
2024-05-09T00:52:00.640Z,8.65
2024-05-09T00:53:00.774Z,10.59
2024-05-09T00:54:00.682Z,9.94
2024-05-09T00:55:00.706Z,10.59
2024-05-09T00:56:00.779Z,11.87
2024-05-09T00:57:00.727Z,14.78
2024-05-09T00:58:00.782Z,9.62
2024-05-09T00:59:00.832Z,9.62
2024-05-09T01:00:00.774Z,8.97
2024-05-09T01:01:00.854Z,9.62
2024-05-09T01:02:00.926Z,10.59
2024-05-09T01:03:01.062Z,12.84
2024-05-09T01:04:00.917Z,15.42
2024-05-09T01:05:00.966Z,7.36
2024-05-09T01:06:00.881Z,11.55
2024-05-09T01:07:00.887Z,11.23
2024-05-09T01:08:01.009Z,8.65
2024-05-09T01:09:00.919Z,12.20
2024-05-09T01:10:00.940Z,8.33
2024-05-09T01:11:01.017Z,9.94
2024-05-09T01:12:01.101Z,9.94
2024-05-09T01:13:00.999Z,14.45
2024-05-09T01:14:01.058Z,10.59
2024-05-09T01:15:01.014Z,9.62
2024-05-09T01:16:01.042Z,10.59
2024-05-09T01:17:01.063Z,11.23
2024-05-09T01:18:01.381Z,10.26
2024-05-09T01:19:01.286Z,10.59
2024-05-09T01:20:01.188Z,15.42
2024-05-09T01:21:01.249Z,9.94
2024-05-09T01:22:01.154Z,10.59
2024-05-09T01:23:01.264Z,10.26
2024-05-09T01:24:01.180Z,9.62
2024-05-09T01:25:01.186Z,11.55
2024-05-09T01:26:01.237Z,10.26
2024-05-09T01:27:01.211Z,10.91
2024-05-09T01:28:01.281Z,12.84
2024-05-09T01:29:01.405Z,10.26
2024-05-09T01:30:01.258Z,10.59
2024-05-09T01:31:01.307Z,10.59
2024-05-09T01:32:01.451Z,10.26
2024-05-09T01:33:01.840Z,9.94
2024-05-09T01:34:01.438Z,8.01
2024-05-09T01:35:01.456Z,9.62
2024-05-09T01:36:01.358Z,13.16
2024-05-09T01:37:01.375Z,9.62
2024-05-09T01:38:01.540Z,9.62
2024-05-09T01:39:01.458Z,10.26
2024-05-09T01:40:01.409Z,11.87
2024-05-09T01:41:01.481Z,9.94
2024-05-09T01:42:01.444Z,9.62
2024-05-09T01:43:01.477Z,10.59
2024-05-09T01:44:01.542Z,9.62
2024-05-09T01:45:01.514Z,8.65
2024-05-09T01:46:01.541Z,9.62
2024-05-09T01:47:01.587Z,10.26
2024-05-09T01:48:02.426Z,9.62
2024-05-09T01:49:01.678Z,14.13
2024-05-09T01:50:01.696Z,9.62
2024-05-09T01:51:01.612Z,9.62
2024-05-09T01:52:01.603Z,8.33
2024-05-09T01:53:01.724Z,9.62
2024-05-09T01:54:01.663Z,9.30
2024-05-09T01:55:05.611Z,9.62
2024-05-09T01:56:01.718Z,9.62
2024-05-09T01:57:01.710Z,9.94
2024-05-09T01:58:01.715Z,12.52
2024-05-09T01:59:01.824Z,9.62
2024-05-09T02:00:01.748Z,8.01
2024-05-09T02:01:01.759Z,15.42
2024-05-09T02:02:01.995Z,8.01
2024-05-09T02:03:02.111Z,9.62
2024-05-09T02:04:02.370Z,13.16
2024-05-09T02:05:01.925Z,10.59
2024-05-09T02:06:02.084Z,10.91
2024-05-09T02:07:01.905Z,14.78
2024-05-09T02:08:01.967Z,8.65
2024-05-09T02:09:01.881Z,11.87
2024-05-09T02:10:02.099Z,9.62
2024-05-09T02:11:02.136Z,11.23
2024-05-09T02:12:02.154Z,9.62
2024-05-09T02:13:01.952Z,11.23
2024-05-09T02:14:02.058Z,13.81
2024-05-09T02:15:01.996Z,9.62
2024-05-09T02:16:01.996Z,9.62
2024-05-09T02:17:02.039Z,11.23
2024-05-09T02:18:02.294Z,9.62
2024-05-09T02:19:02.096Z,9.62
2024-05-09T02:20:02.176Z,12.84
2024-05-09T02:21:02.167Z,9.62
2024-05-09T02:22:02.088Z,12.84
2024-05-09T02:23:02.197Z,9.94
2024-05-09T02:24:02.109Z,9.30
2024-05-09T02:25:02.179Z,14.45
2024-05-09T02:26:02.202Z,14.13
2024-05-09T02:27:02.165Z,9.94
2024-05-09T02:28:02.200Z,8.97
2024-05-09T02:29:02.299Z,11.55
2024-05-09T02:30:02.251Z,9.30
2024-05-09T02:31:02.225Z,9.30
2024-05-09T02:32:02.373Z,10.91
2024-05-09T02:33:02.399Z,8.97
2024-05-09T02:34:02.527Z,10.59
2024-05-09T02:35:02.415Z,11.23
2024-05-09T02:36:02.326Z,8.97
2024-05-09T02:37:02.322Z,8.65
2024-05-09T02:38:02.407Z,9.62
2024-05-09T02:39:02.348Z,9.30
2024-05-09T02:40:03.294Z,8.65
2024-05-09T02:43:35.646Z,8.01
2024-05-09T02:44:37.055Z,11.55
2024-05-09T02:45:36.984Z,8.01
2024-05-09T02:46:37.022Z,8.65
2024-05-09T02:47:37.219Z,8.01
2024-05-09T02:48:37.199Z,8.33
2024-05-09T02:49:37.245Z,8.33
2024-05-09T02:50:39.494Z,8.01
2024-05-09T02:51:37.094Z,11.87
2024-05-09T02:52:37.075Z,12.84
2024-05-09T02:53:37.318Z,8.33
2024-05-09T02:54:37.111Z,8.01
2024-05-09T02:55:37.150Z,8.65
2024-05-09T02:56:37.255Z,10.59
2024-05-09T02:57:37.143Z,8.01
2024-05-09T02:58:37.163Z,7.69
2024-05-09T02:59:37.264Z,8.01
2024-05-09T03:00:40.597Z,8.65
2024-05-09T03:01:37.298Z,12.52
2024-05-09T03:02:37.305Z,11.23
2024-05-09T03:03:37.531Z,7.69
2024-05-09T03:04:37.448Z,5.75
2024-05-09T03:05:37.551Z,12.52
2024-05-09T03:06:37.285Z,7.69
2024-05-09T03:07:37.305Z,13.49
2024-05-09T03:08:37.435Z,7.36
2024-05-09T03:09:37.338Z,6.72
2024-05-09T03:10:38.999Z,7.69
2024-05-09T03:11:37.453Z,11.23
2024-05-09T03:12:39.202Z,7.04
2024-05-09T03:13:37.386Z,7.36
2024-05-09T03:14:37.464Z,7.36
2024-05-09T03:15:37.491Z,7.04
2024-05-09T03:16:37.434Z,8.01
2024-05-09T03:17:37.636Z,6.40
2024-05-09T03:18:37.575Z,6.72
2024-05-09T03:19:37.691Z,7.04
2024-05-09T03:20:37.636Z,7.04
2024-05-09T03:21:37.501Z,7.04
2024-05-09T03:22:37.851Z,7.69
2024-05-09T03:23:37.596Z,8.01
2024-05-09T03:24:37.563Z,10.91
2024-05-09T03:25:37.590Z,8.01
2024-05-09T03:26:37.619Z,7.69
2024-05-09T03:27:37.603Z,6.72
2024-05-09T03:28:37.624Z,8.01
2024-05-09T03:29:37.713Z,9.62
2024-05-09T03:30:41.950Z,10.91
2024-05-09T03:31:37.717Z,7.69
2024-05-09T03:32:37.884Z,8.01
2024-05-09T03:33:38.060Z,8.33
2024-05-09T03:34:37.770Z,7.36
2024-05-09T03:35:37.789Z,11.87
2024-05-09T03:36:37.767Z,6.07
2024-05-09T03:37:37.755Z,6.07
2024-05-09T03:38:37.860Z,7.04
2024-05-09T03:39:37.786Z,10.91
2024-05-09T03:40:37.804Z,8.33
2024-05-09T03:41:37.853Z,7.36
2024-05-09T03:42:37.832Z,11.55
2024-05-09T03:43:37.866Z,8.33
2024-05-09T03:44:37.922Z,7.36
2024-05-09T03:45:37.877Z,6.40
2024-05-09T03:46:37.892Z,6.72
2024-05-09T03:47:38.163Z,7.36
2024-05-09T03:48:38.015Z,7.04
2024-05-09T03:49:37.990Z,8.33
2024-05-09T03:50:38.284Z,7.36
2024-05-09T03:51:38.019Z,9.30
2024-05-09T03:52:37.985Z,6.72
2024-05-09T03:53:38.116Z,8.01
2024-05-09T03:54:38.018Z,11.23
2024-05-09T03:55:38.032Z,10.91
2024-05-09T03:56:38.160Z,8.97
2024-05-09T03:57:38.050Z,6.72
2024-05-09T03:58:38.097Z,9.30
2024-05-09T03:59:38.121Z,7.69
2024-05-09T04:00:39.762Z,9.94
2024-05-09T04:01:38.185Z,8.01
2024-05-09T04:02:38.318Z,8.01
2024-05-09T04:03:38.297Z,8.01
2024-05-09T04:04:38.217Z,13.16
2024-05-09T04:05:38.397Z,6.72
2024-05-09T04:06:38.181Z,13.49
2024-05-09T04:07:38.225Z,10.26
2024-05-09T04:08:38.296Z,8.97
2024-05-09T04:09:38.211Z,8.33
2024-05-09T04:10:38.237Z,8.01
2024-05-09T04:11:38.405Z,8.65
2024-05-09T04:12:38.308Z,10.26
2024-05-09T04:13:38.278Z,6.40
2024-05-09T04:14:38.331Z,10.59
2024-05-09T04:15:38.307Z,8.01
2024-05-09T04:16:38.332Z,11.87
2024-05-09T04:17:39.426Z,12.20
2024-05-09T04:18:38.439Z,7.69
2024-05-09T04:19:38.423Z,8.65
2024-05-09T04:20:40.615Z,8.01
2024-05-09T04:21:38.407Z,8.33
2024-05-09T04:22:38.434Z,7.69
2024-05-09T04:23:38.573Z,8.33
2024-05-09T04:24:38.439Z,8.65
2024-05-09T04:25:38.451Z,8.01
2024-05-09T04:26:38.522Z,6.40
2024-05-09T04:27:38.495Z,9.62
2024-05-09T04:28:38.504Z,8.65
2024-05-09T04:29:38.544Z,11.23
2024-05-09T04:30:40.970Z,8.01
2024-05-09T04:31:38.546Z,8.33
2024-05-09T04:32:38.821Z,8.97
2024-05-09T04:33:38.705Z,8.65
2024-05-09T04:34:38.614Z,7.69
2024-05-09T04:35:39.005Z,7.69
2024-05-09T04:36:41.605Z,10.26
2024-05-09T04:37:38.639Z,9.62
2024-05-09T04:38:38.772Z,12.20
2024-05-09T04:39:38.689Z,14.13
2024-05-09T04:40:38.800Z,11.55
2024-05-09T04:41:38.776Z,13.16
2024-05-09T04:42:38.741Z,8.01
2024-05-09T04:43:38.746Z,9.62
2024-05-09T04:44:38.802Z,8.01
2024-05-09T04:45:38.764Z,8.01
2024-05-09T04:46:38.785Z,10.59
2024-05-09T04:47:38.984Z,13.49
2024-05-09T04:48:38.891Z,10.26
2024-05-09T04:49:38.916Z,12.20
2024-05-09T04:50:39.813Z,9.30
2024-05-09T04:51:38.848Z,10.59
2024-05-09T04:52:38.884Z,10.59
2024-05-09T04:53:39.063Z,8.33
2024-05-09T04:54:38.907Z,8.33
2024-05-09T04:55:39.183Z,9.62
2024-05-09T04:56:39.023Z,8.33
2024-05-09T04:57:38.956Z,8.33
2024-05-09T04:58:38.968Z,8.97
2024-05-09T04:59:39.064Z,10.91
2024-05-09T05:00:40.395Z,8.97
2024-05-09T05:01:39.018Z,5.75
2024-05-09T05:02:39.096Z,12.52
2024-05-09T05:03:39.515Z,9.62
2024-05-09T05:04:39.098Z,9.30
2024-05-09T05:05:39.121Z,9.94
2024-05-09T05:06:39.113Z,10.59
2024-05-09T05:07:39.146Z,8.33
2024-05-09T05:08:39.248Z,8.33
2024-05-09T05:09:39.144Z,8.65
2024-05-09T05:10:39.204Z,7.69
2024-05-09T05:11:39.249Z,8.97
2024-05-09T05:12:39.195Z,12.20
2024-05-09T05:13:41.582Z,8.33
2024-05-09T05:14:39.261Z,9.30
2024-05-09T05:15:39.260Z,7.36
2024-05-09T05:16:39.263Z,9.94
2024-05-09T05:17:39.586Z,11.55
2024-05-09T05:18:39.425Z,9.62
2024-05-09T05:19:39.499Z,13.81
2024-05-09T05:20:39.340Z,11.87
2024-05-09T05:21:39.335Z,13.16
2024-05-09T05:22:39.360Z,9.94
2024-05-09T05:23:39.385Z,11.23
2024-05-09T05:24:39.386Z,11.55
2024-05-09T05:25:39.381Z,9.94
2024-05-09T05:26:39.512Z,10.91
2024-05-09T05:27:39.441Z,14.45
2024-05-09T05:28:39.431Z,10.59
2024-05-09T05:29:39.517Z,11.55
2024-05-09T05:30:39.464Z,14.45
2024-05-09T05:31:39.580Z,9.62
2024-05-09T05:32:39.663Z,10.59
2024-05-09T05:33:39.598Z,12.20
2024-05-09T05:34:39.555Z,11.23
2024-05-09T05:35:39.661Z,11.87
2024-05-09T05:36:39.565Z,11.23
2024-05-09T05:37:39.599Z,8.65
2024-05-09T05:38:39.631Z,11.87
2024-05-09T05:39:39.643Z,12.20
2024-05-09T05:40:40.753Z,14.78
2024-05-09T05:41:39.637Z,12.52
2024-05-09T05:42:39.643Z,12.52
2024-05-09T05:43:39.689Z,12.52
2024-05-09T05:44:39.732Z,12.84
2024-05-09T05:45:39.698Z,11.55
2024-05-09T05:46:39.793Z,14.78
2024-05-09T05:47:39.934Z,13.81
2024-05-09T05:48:39.899Z,13.81
2024-05-09T05:49:39.820Z,14.45
2024-05-09T05:50:39.907Z,14.13
2024-05-09T05:51:39.815Z,14.45
2024-05-09T05:52:39.805Z,18.00
2024-05-09T05:53:39.958Z,15.74
2024-05-09T05:54:39.899Z,13.81
2024-05-09T05:55:40.071Z,15.10
2024-05-09T05:56:39.889Z,16.71
2024-05-09T05:57:39.877Z,18.64
2024-05-09T05:58:39.904Z,20.25
2024-05-09T05:59:39.966Z,16.06
2024-05-09T06:00:41.025Z,15.42
2024-05-09T06:01:39.966Z,13.81
2024-05-09T06:02:40.159Z,15.74
2024-05-09T06:03:40.151Z,16.06
2024-05-09T06:04:40.047Z,17.68
2024-05-09T06:05:40.871Z,16.39
2024-05-09T06:06:40.040Z,16.39
2024-05-09T06:07:40.046Z,20.25
2024-05-09T06:08:40.129Z,18.64
2024-05-09T06:09:40.061Z,18.00
2024-05-09T06:10:41.313Z,18.00
2024-05-09T06:11:40.165Z,17.35
2024-05-09T06:12:40.119Z,18.00
2024-05-09T06:13:40.170Z,18.00
2024-05-09T06:14:40.287Z,18.96
2024-05-09T06:15:40.653Z,19.61
2024-05-09T06:16:40.194Z,21.87
2024-05-09T06:17:40.286Z,18.32
2024-05-09T06:18:40.425Z,19.61
2024-05-09T06:19:40.313Z,19.61
2024-05-09T06:20:40.618Z,18.64
2024-05-09T06:21:40.298Z,16.71
2024-05-09T06:22:40.284Z,22.19
2024-05-09T06:23:40.341Z,19.93
2024-05-09T06:24:40.306Z,24.44
2024-05-09T06:25:40.352Z,19.61
2024-05-09T06:26:40.365Z,20.25
2024-05-09T06:27:40.350Z,22.51
2024-05-09T06:28:40.362Z,21.54
2024-05-09T06:29:40.485Z,21.87
2024-05-09T06:30:42.390Z,26.05
2024-05-09T06:31:40.403Z,21.87
2024-05-09T06:32:40.602Z,23.48
2024-05-09T06:33:40.675Z,21.54
2024-05-09T06:34:40.569Z,27.34
2024-05-09T06:35:40.916Z,23.48
2024-05-09T06:36:40.499Z,23.48
2024-05-09T06:37:40.510Z,23.15
2024-05-09T06:38:40.604Z,27.99
2024-05-09T06:39:40.537Z,26.38
2024-05-09T06:40:42.440Z,24.12
2024-05-09T06:41:40.644Z,25.09
2024-05-09T06:42:40.591Z,24.77
2024-05-09T06:43:40.608Z,27.67
2024-05-09T06:44:40.675Z,25.73
2024-05-09T06:45:40.660Z,25.09
2024-05-09T06:46:40.694Z,24.44
2024-05-09T06:47:40.810Z,25.41
2024-05-09T06:48:40.947Z,26.05
2024-05-09T06:49:40.717Z,29.92
2024-05-09T06:50:40.888Z,27.99
2024-05-09T06:51:40.743Z,26.38
2024-05-09T06:52:40.768Z,27.02
2024-05-09T06:53:40.861Z,27.67
2024-05-09T06:54:40.798Z,27.34
2024-05-09T06:55:40.828Z,29.92
2024-05-09T06:56:40.879Z,28.31
2024-05-09T06:57:43.071Z,27.02
2024-05-09T06:58:40.871Z,27.02
2024-05-09T06:59:40.908Z,26.70
2024-05-09T07:00:42.099Z,26.05
2024-05-09T07:01:40.979Z,25.09
2024-05-09T07:02:41.119Z,25.73
2024-05-09T07:03:41.079Z,27.99
2024-05-09T07:04:41.043Z,25.09
2024-05-09T07:05:41.058Z,27.34
2024-05-09T07:06:41.000Z,25.73
2024-05-09T07:07:41.012Z,26.05
2024-05-09T07:08:41.069Z,28.63
2024-05-09T07:09:41.059Z,29.92
2024-05-09T07:10:41.099Z,31.86
2024-05-09T07:11:41.221Z,28.63
2024-05-09T07:12:41.098Z,28.96
2024-05-09T07:13:41.124Z,31.86
2024-05-09T07:14:41.149Z,28.63
2024-05-09T07:15:41.262Z,29.28
2024-05-09T07:16:41.193Z,33.14
2024-05-09T07:17:41.403Z,29.92
2024-05-09T07:18:41.443Z,29.92
2024-05-09T07:19:41.356Z,29.28
2024-05-09T07:20:41.355Z,31.21
2024-05-09T07:21:41.262Z,29.28
2024-05-09T07:22:41.267Z,28.96
2024-05-09T07:23:43.587Z,27.67
2024-05-09T07:24:41.282Z,27.99
2024-05-09T07:25:41.589Z,27.67
2024-05-09T07:26:41.428Z,27.34
2024-05-09T07:27:41.350Z,30.57
2024-05-09T07:28:41.425Z,26.70
2024-05-09T07:29:41.452Z,27.99
2024-05-09T07:30:41.390Z,28.96
2024-05-09T07:31:41.395Z,27.99
2024-05-09T07:32:41.514Z,31.86
2024-05-09T07:33:41.508Z,27.99
2024-05-09T07:34:41.518Z,30.89
2024-05-09T07:35:41.604Z,28.31
2024-05-09T07:36:41.488Z,28.63
2024-05-09T07:37:41.514Z,28.31
2024-05-09T07:38:41.676Z,28.63
2024-05-09T07:39:41.535Z,28.63
2024-05-09T07:40:41.556Z,32.18
2024-05-09T07:41:41.636Z,29.28
2024-05-09T07:42:41.569Z,27.99
2024-05-09T07:43:41.599Z,27.99
2024-05-09T07:44:41.668Z,27.99
2024-05-09T07:45:50.639Z,28.31
2024-05-09T07:47:47.842Z,28.31
2024-05-09T07:51:31.294Z,28.63
2024-05-09T07:53:35.690Z,34.11
2024-05-09T07:53:51.102Z,31.21
2024-05-09T07:54:05.338Z,29.92
2024-05-09T07:55:04.849Z,30.89
2024-05-09T07:56:04.788Z,29.92
2024-05-09T07:57:04.800Z,31.21
2024-05-09T07:58:04.883Z,29.92
2024-05-09T07:59:04.769Z,29.92
2024-05-09T08:00:06.495Z,32.82
2024-05-09T08:01:05.040Z,30.57
2024-05-09T08:02:05.037Z,35.08
2024-05-09T08:03:04.932Z,31.53
2024-05-09T08:04:04.908Z,34.76
2024-05-09T08:05:05.105Z,33.14
2024-05-09T08:06:04.907Z,33.14
2024-05-09T08:07:04.913Z,33.14
2024-05-09T08:08:04.910Z,33.47
2024-05-09T08:09:08.256Z,33.47
2024-05-09T08:10:06.579Z,37.33
2024-05-09T08:11:05.039Z,38.95
2024-05-09T08:12:04.971Z,34.43
2024-05-09T08:13:05.216Z,36.04
2024-05-09T08:14:05.013Z,35.08
2024-05-09T08:15:05.042Z,35.08
2024-05-09T08:16:05.273Z,34.76
2024-05-09T08:17:05.092Z,32.82
2024-05-09T08:18:05.199Z,37.66
2024-05-09T08:19:05.137Z,36.69
2024-05-09T08:20:05.695Z,33.47
2024-05-09T08:21:05.205Z,34.11
2024-05-09T08:22:05.177Z,32.82
2024-05-09T08:23:05.161Z,33.14
2024-05-09T08:24:05.199Z,34.43
2024-05-09T08:25:05.307Z,33.47
2024-05-09T08:26:05.214Z,33.47
2024-05-09T08:27:05.229Z,31.53
2024-05-09T08:28:05.338Z,32.82
2024-05-09T08:29:05.253Z,33.14
2024-05-09T08:30:06.341Z,34.43
2024-05-09T08:31:07.014Z,35.40
2024-05-09T08:32:05.342Z,34.43
2024-05-09T08:33:06.221Z,37.01
2024-05-09T08:34:05.596Z,37.66
2024-05-09T08:35:05.491Z,36.04
2024-05-09T08:36:05.402Z,38.95
2024-05-09T08:37:13.000Z,36.04
2024-05-09T08:38:05.626Z,36.37
2024-05-09T08:39:05.451Z,36.69
2024-05-09T08:40:08.456Z,34.76
2024-05-09T08:41:05.468Z,35.72
2024-05-09T08:42:05.488Z,34.76
2024-05-09T08:43:05.604Z,35.72
2024-05-09T08:44:05.502Z,35.08
2024-05-09T08:45:05.547Z,35.40
2024-05-09T08:46:05.603Z,34.76
2024-05-09T08:47:05.616Z,37.01
2024-05-09T08:48:06.389Z,36.37
2024-05-09T08:49:05.764Z,38.62
2024-05-09T08:50:08.566Z,36.69
2024-05-09T08:51:05.626Z,36.37
2024-05-09T08:52:05.732Z,40.23
2024-05-09T08:53:05.890Z,37.01
2024-05-09T08:54:05.712Z,37.98
2024-05-09T08:55:05.783Z,39.27
2024-05-09T08:56:05.723Z,37.33
2024-05-09T08:57:05.741Z,38.30
2024-05-09T08:58:05.976Z,37.01
2024-05-09T08:59:05.761Z,35.08
2024-05-09T09:00:09.990Z,36.37
2024-05-09T09:01:05.905Z,39.27
2024-05-09T09:02:05.898Z,35.08
2024-05-09T09:03:06.060Z,36.37
2024-05-09T09:04:05.982Z,36.69
2024-05-09T09:05:05.998Z,36.37
2024-05-09T09:06:05.889Z,38.30
2024-05-09T09:07:05.948Z,41.52
2024-05-09T09:08:05.941Z,37.33
2024-05-09T09:09:05.929Z,38.62
2024-05-09T09:10:08.535Z,40.56
2024-05-09T09:11:05.986Z,38.95
2024-05-09T09:12:07.877Z,38.30
2024-05-09T09:13:06.034Z,39.59
2024-05-09T09:14:06.028Z,37.33
2024-05-09T09:15:06.032Z,35.40
2024-05-09T09:16:06.179Z,35.72
2024-05-09T09:17:06.090Z,37.66
2024-05-09T09:18:07.864Z,37.01
2024-05-09T09:19:06.244Z,36.04
2024-05-09T09:20:11.307Z,36.37
2024-05-09T09:21:06.155Z,36.37
2024-05-09T09:22:06.189Z,36.37
2024-05-09T09:23:06.178Z,36.69
2024-05-09T09:24:07.525Z,36.69
2024-05-09T09:25:06.295Z,36.37
2024-05-09T09:26:06.273Z,37.01
2024-05-09T09:27:06.250Z,35.40
2024-05-09T09:28:06.316Z,35.08
2024-05-09T09:29:06.275Z,36.69
2024-05-09T09:30:13.189Z,38.30
2024-05-09T09:31:06.347Z,37.01
2024-05-09T09:32:06.310Z,38.30
2024-05-09T09:33:06.762Z,37.01
2024-05-09T09:34:06.495Z,37.01
2024-05-09T09:35:06.390Z,37.98
2024-05-09T09:36:08.209Z,36.69
2024-05-09T09:37:06.516Z,35.08
2024-05-09T09:38:06.489Z,37.33
2024-05-09T09:39:06.453Z,36.69
2024-05-09T09:40:07.080Z,37.66
2024-05-09T09:41:06.661Z,37.33
2024-05-09T09:42:06.503Z,37.66
2024-05-09T09:43:06.597Z,36.69
2024-05-09T09:44:06.535Z,41.52
2024-05-09T09:45:06.561Z,38.62
2024-05-09T09:46:09.566Z,39.27
2024-05-09T09:47:06.628Z,39.91
2024-05-09T09:48:06.792Z,39.91
2024-05-09T09:49:06.776Z,37.66
2024-05-09T09:50:12.032Z,38.62
2024-05-09T09:51:06.662Z,38.95
2024-05-09T09:52:08.460Z,42.49
2024-05-09T09:53:06.678Z,39.91
2024-05-09T09:54:06.705Z,39.59
2024-05-09T09:55:06.756Z,38.30
2024-05-09T09:56:06.760Z,39.59
2024-05-09T09:57:06.770Z,37.66
2024-05-09T09:58:09.593Z,37.98
2024-05-09T09:59:06.807Z,38.30
2024-05-09T10:00:11.644Z,38.62
2024-05-09T10:01:06.930Z,38.30
2024-05-09T10:02:06.951Z,38.30
2024-05-09T10:03:06.973Z,38.95
2024-05-09T10:04:06.970Z,41.52
2024-05-09T10:05:07.003Z,39.59
2024-05-09T10:06:06.914Z,38.95
2024-05-09T10:07:06.978Z,38.30
2024-05-09T10:08:06.953Z,38.30
2024-05-09T10:09:06.975Z,37.66
2024-05-09T10:10:07.168Z,37.66
2024-05-09T10:11:07.183Z,42.17
2024-05-09T10:12:09.260Z,38.95
2024-05-09T10:13:07.503Z,37.01
2024-05-09T10:14:07.058Z,36.69
2024-05-09T10:15:07.074Z,35.40
2024-05-09T10:16:07.121Z,35.08
2024-05-09T10:17:07.206Z,36.37
2024-05-09T10:18:07.441Z,37.98
2024-05-09T10:19:07.178Z,34.11
2024-05-09T10:20:11.688Z,34.11
2024-05-09T10:21:07.176Z,33.47
2024-05-09T10:22:07.252Z,33.79
2024-05-09T10:23:07.251Z,33.14
2024-05-09T10:24:07.212Z,33.14
2024-05-09T10:25:07.305Z,33.14
2024-05-09T10:26:07.278Z,34.11
2024-05-09T10:27:07.278Z,35.08
2024-05-09T10:28:07.408Z,32.18
2024-05-09T10:29:07.309Z,32.50
2024-05-09T10:30:14.323Z,33.14
2024-05-09T10:31:07.384Z,31.86
2024-05-09T10:32:07.368Z,33.79
2024-05-09T10:33:07.411Z,30.89
2024-05-09T10:34:07.540Z,30.89
2024-05-09T10:35:07.448Z,31.86
2024-05-09T10:36:07.437Z,31.86
2024-05-09T10:37:07.461Z,30.89
2024-05-09T10:38:07.439Z,31.86
2024-05-09T10:39:07.469Z,32.18
2024-05-09T10:40:14.020Z,31.53
2024-05-09T10:41:07.508Z,31.53
2024-05-09T10:42:07.554Z,33.47
2024-05-09T10:43:07.587Z,32.18
2024-05-09T10:44:07.540Z,30.57
2024-05-09T10:45:07.614Z,32.50
2024-05-09T10:46:07.903Z,32.18
2024-05-09T10:47:07.635Z,36.37
2024-05-09T10:48:07.745Z,37.01
2024-05-09T10:49:08.135Z,36.04
2024-05-09T10:50:15.744Z,33.14
2024-05-09T10:51:07.700Z,33.47
2024-05-09T10:52:07.812Z,32.18
2024-05-09T10:53:07.723Z,31.86
2024-05-09T10:54:07.817Z,33.79
2024-05-09T10:55:07.829Z,33.14
2024-05-09T10:56:07.775Z,33.14
2024-05-09T10:57:07.796Z,32.18
2024-05-09T10:58:07.967Z,30.57
2024-05-09T10:59:07.826Z,35.40
2024-05-09T11:00:10.192Z,30.89
2024-05-09T11:01:07.964Z,33.14
2024-05-09T11:02:09.188Z,31.53
2024-05-09T11:03:07.950Z,32.50
2024-05-09T11:04:08.037Z,30.57
2024-05-09T11:05:08.013Z,32.50
2024-05-09T11:06:07.943Z,32.50
2024-05-09T11:07:08.004Z,35.08
2024-05-09T11:08:07.984Z,32.50
2024-05-09T11:09:08.004Z,32.82
2024-05-09T11:10:12.346Z,32.50
2024-05-09T11:11:08.841Z,31.53
2024-05-09T11:12:08.165Z,31.21
2024-05-09T11:13:08.090Z,31.53
2024-05-09T11:14:08.073Z,30.89
2024-05-09T11:15:08.132Z,33.14
2024-05-09T11:16:08.160Z,31.53
2024-05-09T11:17:08.144Z,31.86
2024-05-09T11:18:08.224Z,32.82
2024-05-09T11:19:08.230Z,33.14
2024-05-09T11:20:13.573Z,37.33
2024-05-09T11:21:08.167Z,37.33
2024-05-09T11:22:08.367Z,33.47
2024-05-09T11:23:08.256Z,33.14
2024-05-09T11:24:11.172Z,32.82
2024-05-09T11:25:08.370Z,32.18
2024-05-09T11:26:08.263Z,32.50
2024-05-09T11:27:08.265Z,36.37
2024-05-09T11:28:08.414Z,31.86
2024-05-09T11:29:08.292Z,31.53
2024-05-09T11:30:14.203Z,31.86
2024-05-09T11:31:08.897Z,30.57
2024-05-09T11:32:08.405Z,35.72
2024-05-09T11:33:08.393Z,35.08
2024-05-09T11:34:08.406Z,33.47
2024-05-09T11:35:08.427Z,33.14
2024-05-09T11:36:08.469Z,37.33
2024-05-09T11:37:08.482Z,32.82
2024-05-09T11:38:08.470Z,37.33
2024-05-09T11:39:08.451Z,34.76
2024-05-09T11:40:13.923Z,33.79
2024-05-09T11:41:08.559Z,35.08
2024-05-09T11:42:08.518Z,34.11
2024-05-09T11:43:08.695Z,36.37
2024-05-09T11:44:08.641Z,32.50
2024-05-09T11:45:08.586Z,33.14
2024-05-09T11:46:08.638Z,31.86
2024-05-09T11:47:08.622Z,32.50
2024-05-09T11:48:08.727Z,30.89
2024-05-09T11:49:08.836Z,31.21
2024-05-09T11:50:12.984Z,30.89
2024-05-09T11:51:08.666Z,32.18
2024-05-09T11:52:08.736Z,31.21
2024-05-09T11:53:08.698Z,30.24
2024-05-09T11:54:08.721Z,31.86
2024-05-09T11:55:08.915Z,29.28
2024-05-09T11:56:08.748Z,29.28
2024-05-09T11:57:08.781Z,31.86
2024-05-09T11:58:08.809Z,27.02
2024-05-09T11:59:08.784Z,27.99
2024-05-09T12:00:11.874Z,28.31
2024-05-09T12:01:08.902Z,29.60
2024-05-09T12:02:09.010Z,27.67
2024-05-09T12:03:08.884Z,26.70
2024-05-09T12:04:09.181Z,27.67
2024-05-09T12:05:08.978Z,29.60
2024-05-09T12:06:08.954Z,26.70
2024-05-09T12:07:12.211Z,30.57
2024-05-09T12:08:08.959Z,23.80
2024-05-09T12:09:08.960Z,26.05
2024-05-09T12:10:14.239Z,26.05
2024-05-09T12:11:09.097Z,26.38
2024-05-09T12:12:09.031Z,26.38
2024-05-09T12:13:09.176Z,25.73
2024-05-09T12:14:09.067Z,28.31
2024-05-09T12:15:09.118Z,26.70
2024-05-09T12:16:09.294Z,27.34
2024-05-09T12:17:09.138Z,27.99
2024-05-09T12:18:09.270Z,28.31
2024-05-09T12:19:09.388Z,31.21
2024-05-09T12:20:14.254Z,27.67
2024-05-09T12:21:09.256Z,27.99
2024-05-09T12:22:09.343Z,28.63
2024-05-09T12:23:10.386Z,29.60
2024-05-09T12:24:09.219Z,30.24
2024-05-09T12:25:09.413Z,29.60
2024-05-09T12:26:09.270Z,28.63
2024-05-09T12:27:09.283Z,28.63
2024-05-09T12:28:09.477Z,27.99
2024-05-09T12:29:09.328Z,30.24
2024-05-09T12:30:11.553Z,32.50
2024-05-09T12:31:09.420Z,31.86
2024-05-09T12:32:09.504Z,30.24
2024-05-09T12:33:09.874Z,29.92
2024-05-09T12:34:09.504Z,32.50
2024-05-09T12:35:09.420Z,33.47
2024-05-09T12:36:09.454Z,29.92
2024-05-09T12:37:09.595Z,29.92
2024-05-09T12:38:09.470Z,31.21
2024-05-09T12:39:09.474Z,29.92
2024-05-09T12:40:18.471Z,34.11
2024-05-09T12:41:09.521Z,29.60
2024-05-09T12:42:11.055Z,31.53
2024-05-09T12:43:10.836Z,31.21
2024-05-09T12:44:09.583Z,31.86
2024-05-09T12:45:09.612Z,30.57
2024-05-09T12:46:09.628Z,33.14
2024-05-09T12:47:09.622Z,31.21
2024-05-09T12:48:09.741Z,28.96
2024-05-09T12:49:09.911Z,28.31
2024-05-09T12:50:18.919Z,28.31
2024-05-09T12:51:09.701Z,27.99
2024-05-09T12:52:09.912Z,31.21
2024-05-09T12:53:09.892Z,29.60
2024-05-09T12:54:09.745Z,29.60
2024-05-09T12:55:09.984Z,27.02
2024-05-09T12:56:09.774Z,27.67
2024-05-09T12:57:09.792Z,29.28
2024-05-09T12:58:09.916Z,28.63
2024-05-09T12:59:09.825Z,28.63
2024-05-09T13:00:20.210Z,29.60
2024-05-09T13:01:09.919Z,28.63
2024-05-09T13:02:10.138Z,30.89
2024-05-09T13:03:09.985Z,28.63
2024-05-09T13:04:10.085Z,28.96
2024-05-09T13:05:10.093Z,31.21
2024-05-09T13:06:09.930Z,30.24